sensor_id;sensor_type;location;lat;lon;timestamp;P1;durP1;ratioP1;P2;durP2;ratioP2
52724;SDS011;38621;52.830;6.914;2022-10-16T00:00:35;3.17;;;1.52;;
52724;SDS011;38621;52.830;6.914;2022-10-16T00:03:02;2.63;;;1.10;;
52724;SDS011;38621;52.830;6.914;2022-10-16T00:05:29;2.45;;;1.10;;
52724;SDS011;38621;52.830;6.914;2022-10-16T00:07:55;3.42;;;1.10;;
52724;SDS011;38621;52.830;6.914;2022-10-16T00:10:20;3.35;;;1.25;;
52724;SDS011;38621;52.830;6.914;2022-10-16T00:12:46;3.88;;;1.30;;
52724;SDS011;38621;52.830;6.914;2022-10-16T00:15:12;3.47;;;1.23;;
52724;SDS011;38621;52.830;6.914;2022-10-16T00:17:38;4.63;;;1.20;;
52724;SDS011;38621;52.830;6.914;2022-10-16T00:20:04;2.03;;;1.13;;
52724;SDS011;38621;52.830;6.914;2022-10-16T00:22:30;4.07;;;1.40;;
52724;SDS011;38621;52.830;6.914;2022-10-16T00:24:56;4.68;;;1.25;;
52724;SDS011;38621;52.830;6.914;2022-10-16T00:27:21;2.45;;;1.30;;
52724;SDS011;38621;52.830;6.914;2022-10-16T00:29:51;2.40;;;1.40;;
52724;SDS011;38621;52.830;6.914;2022-10-16T00:32:17;3.42;;;1.42;;
52724;SDS011;38621;52.830;6.914;2022-10-16T00:34:44;4.00;;;1.40;;
52724;SDS011;38621;52.830;6.914;2022-10-16T00:37:10;3.67;;;1.50;;
52724;SDS011;38621;52.830;6.914;2022-10-16T00:39:36;3.45;;;1.45;;
52724;SDS011;38621;52.830;6.914;2022-10-16T00:42:02;2.83;;;1.50;;
52724;SDS011;38621;52.830;6.914;2022-10-16T00:44:44;5.45;;;1.45;;
52724;SDS011;38621;52.830;6.914;2022-10-16T00:47:17;2.75;;;1.33;;
52724;SDS011;38621;52.830;6.914;2022-10-16T00:49:55;3.25;;;1.58;;
52724;SDS011;38621;52.830;6.914;2022-10-16T00:52:46;3.95;;;1.40;;
52724;SDS011;38621;52.830;6.914;2022-10-16T00:55:13;3.10;;;1.60;;
52724;SDS011;38621;52.830;6.914;2022-10-16T00:57:39;2.85;;;1.50;;
52724;SDS011;38621;52.830;6.914;2022-10-16T01:00:07;4.03;;;1.65;;
52724;SDS011;38621;52.830;6.914;2022-10-16T01:02:35;3.20;;;1.33;;
52724;SDS011;38621;52.830;6.914;2022-10-16T01:05:00;3.17;;;1.50;;
52724;SDS011;38621;52.830;6.914;2022-10-16T01:10:20;2.63;;;1.65;;
52724;SDS011;38621;52.830;6.914;2022-10-16T01:15:21;3.85;;;1.73;;
52724;SDS011;38621;52.830;6.914;2022-10-16T01:17:57;3.75;;;1.50;;
52724;SDS011;38621;52.830;6.914;2022-10-16T01:21:09;3.10;;;1.60;;
52724;SDS011;38621;52.830;6.914;2022-10-16T01:26:17;2.58;;;1.63;;
52724;SDS011;38621;52.830;6.914;2022-10-16T01:29:15;3.47;;;1.60;;
52724;SDS011;38621;52.830;6.914;2022-10-16T01:31:44;3.05;;;1.40;;
52724;SDS011;38621;52.830;6.914;2022-10-16T01:34:15;3.15;;;1.77;;
52724;SDS011;38621;52.830;6.914;2022-10-16T01:36:51;3.97;;;1.80;;
52724;SDS011;38621;52.830;6.914;2022-10-16T01:39:22;2.90;;;1.60;;
52724;SDS011;38621;52.830;6.914;2022-10-16T01:44:42;2.92;;;1.50;;
52724;SDS011;38621;52.830;6.914;2022-10-16T01:47:11;3.47;;;1.60;;
52724;SDS011;38621;52.830;6.914;2022-10-16T01:49:39;2.38;;;1.33;;
52724;SDS011;38621;52.830;6.914;2022-10-16T01:52:12;3.65;;;1.70;;
52724;SDS011;38621;52.830;6.914;2022-10-16T01:54:43;3.80;;;2.05;;
52724;SDS011;38621;52.830;6.914;2022-10-16T01:57:12;3.55;;;1.48;;
52724;SDS011;38621;52.830;6.914;2022-10-16T01:59:45;2.92;;;1.48;;
52724;SDS011;38621;52.830;6.914;2022-10-16T02:02:13;3.28;;;1.45;;
52724;SDS011;38621;52.830;6.914;2022-10-16T02:04:46;2.55;;;1.58;;
52724;SDS011;38621;52.830;6.914;2022-10-16T02:07:18;2.65;;;1.40;;
52724;SDS011;38621;52.830;6.914;2022-10-16T02:09:44;2.33;;;1.48;;
52724;SDS011;38621;52.830;6.914;2022-10-16T02:12:12;4.00;;;1.40;;
52724;SDS011;38621;52.830;6.914;2022-10-16T02:14:42;3.08;;;1.75;;
52724;SDS011;38621;52.830;6.914;2022-10-16T02:17:15;1.98;;;1.20;;
52724;SDS011;38621;52.830;6.914;2022-10-16T02:19:42;3.50;;;1.63;;
52724;SDS011;38621;52.830;6.914;2022-10-16T02:22:22;2.67;;;1.48;;
52724;SDS011;38621;52.830;6.914;2022-10-16T02:25:03;3.33;;;1.48;;
52724;SDS011;38621;52.830;6.914;2022-10-16T02:28:14;3.22;;;1.50;;
52724;SDS011;38621;52.830;6.914;2022-10-16T02:30:45;3.83;;;1.40;;
52724;SDS011;38621;52.830;6.914;2022-10-16T02:33:15;2.63;;;1.40;;
52724;SDS011;38621;52.830;6.914;2022-10-16T02:35:43;2.65;;;1.30;;
52724;SDS011;38621;52.830;6.914;2022-10-16T02:38:10;5.57;;;2.03;;
52724;SDS011;38621;52.830;6.914;2022-10-16T02:40:37;3.13;;;1.48;;
52724;SDS011;38621;52.830;6.914;2022-10-16T02:43:04;2.72;;;1.42;;
52724;SDS011;38621;52.830;6.914;2022-10-16T02:45:30;4.05;;;1.33;;
52724;SDS011;38621;52.830;6.914;2022-10-16T02:47:56;2.70;;;1.58;;
52724;SDS011;38621;52.830;6.914;2022-10-16T02:50:22;2.13;;;1.30;;
52724;SDS011;38621;52.830;6.914;2022-10-16T02:52:49;3.00;;;1.40;;
52724;SDS011;38621;52.830;6.914;2022-10-16T02:55:15;2.13;;;1.30;;
52724;SDS011;38621;52.830;6.914;2022-10-16T02:57:40;1.98;;;1.30;;
52724;SDS011;38621;52.830;6.914;2022-10-16T03:00:07;2.55;;;1.20;;
52724;SDS011;38621;52.830;6.914;2022-10-16T03:02:34;2.80;;;1.20;;
52724;SDS011;38621;52.830;6.914;2022-10-16T03:05:00;4.10;;;1.48;;
52724;SDS011;38621;52.830;6.914;2022-10-16T03:07:26;3.25;;;1.20;;
52724;SDS011;38621;52.830;6.914;2022-10-16T03:09:51;2.72;;;1.35;;
52724;SDS011;38621;52.830;6.914;2022-10-16T03:12:17;2.30;;;1.52;;
52724;SDS011;38621;52.830;6.914;2022-10-16T03:14:43;2.33;;;1.40;;
52724;SDS011;38621;52.830;6.914;2022-10-16T03:17:08;3.35;;;1.45;;
52724;SDS011;38621;52.830;6.914;2022-10-16T03:19:34;4.03;;;1.77;;
52724;SDS011;38621;52.830;6.914;2022-10-16T03:22:01;2.30;;;1.30;;
52724;SDS011;38621;52.830;6.914;2022-10-16T03:24:27;3.88;;;1.40;;
52724;SDS011;38621;52.830;6.914;2022-10-16T03:26:52;2.85;;;1.30;;
52724;SDS011;38621;52.830;6.914;2022-10-16T03:29:18;2.55;;;1.52;;
52724;SDS011;38621;52.830;6.914;2022-10-16T03:31:43;2.42;;;1.48;;
52724;SDS011;38621;52.830;6.914;2022-10-16T03:34:09;2.60;;;1.50;;
52724;SDS011;38621;52.830;6.914;2022-10-16T03:36:35;2.72;;;1.50;;
52724;SDS011;38621;52.830;6.914;2022-10-16T03:39:00;2.47;;;1.50;;
52724;SDS011;38621;52.830;6.914;2022-10-16T03:41:26;3.60;;;1.63;;
52724;SDS011;38621;52.830;6.914;2022-10-16T03:43:52;3.00;;;1.58;;
52724;SDS011;38621;52.830;6.914;2022-10-16T03:46:17;2.65;;;1.30;;
52724;SDS011;38621;52.830;6.914;2022-10-16T03:48:43;4.68;;;1.42;;
52724;SDS011;38621;52.830;6.914;2022-10-16T03:51:09;2.00;;;1.38;;
52724;SDS011;38621;52.830;6.914;2022-10-16T03:53:34;2.60;;;1.63;;
52724;SDS011;38621;52.830;6.914;2022-10-16T03:56:00;3.00;;;1.88;;
52724;SDS011;38621;52.830;6.914;2022-10-16T03:58:26;4.78;;;1.80;;
52724;SDS011;38621;52.830;6.914;2022-10-16T04:00:51;3.47;;;1.67;;
52724;SDS011;38621;52.830;6.914;2022-10-16T04:03:17;3.13;;;1.50;;
52724;SDS011;38621;52.830;6.914;2022-10-16T04:05:44;2.25;;;1.58;;
52724;SDS011;38621;52.830;6.914;2022-10-16T04:08:09;3.72;;;1.77;;
52724;SDS011;38621;52.830;6.914;2022-10-16T04:10:35;2.78;;;1.63;;
52724;SDS011;38621;52.830;6.914;2022-10-16T04:13:01;3.03;;;1.58;;
52724;SDS011;38621;52.830;6.914;2022-10-16T04:15:26;2.75;;;1.65;;
52724;SDS011;38621;52.830;6.914;2022-10-16T04:17:52;3.50;;;1.83;;
52724;SDS011;38621;52.830;6.914;2022-10-16T04:20:18;2.55;;;1.90;;
52724;SDS011;38621;52.830;6.914;2022-10-16T04:22:44;3.03;;;1.70;;
52724;SDS011;38621;52.830;6.914;2022-10-16T04:25:10;4.35;;;2.25;;
52724;SDS011;38621;52.830;6.914;2022-10-16T04:27:37;4.03;;;2.22;;
52724;SDS011;38621;52.830;6.914;2022-10-16T04:30:03;3.60;;;2.00;;
52724;SDS011;38621;52.830;6.914;2022-10-16T04:32:30;3.13;;;2.17;;
52724;SDS011;38621;52.830;6.914;2022-10-16T04:34:55;2.83;;;1.95;;
52724;SDS011;38621;52.830;6.914;2022-10-16T04:37:25;3.90;;;2.10;;
52724;SDS011;38621;52.830;6.914;2022-10-16T04:39:51;4.68;;;2.08;;
52724;SDS011;38621;52.830;6.914;2022-10-16T04:42:18;2.95;;;2.10;;
52724;SDS011;38621;52.830;6.914;2022-10-16T04:44:43;4.00;;;2.00;;
52724;SDS011;38621;52.830;6.914;2022-10-16T04:47:09;3.50;;;2.30;;
52724;SDS011;38621;52.830;6.914;2022-10-16T04:49:34;3.40;;;2.05;;
52724;SDS011;38621;52.830;6.914;2022-10-16T04:52:00;3.28;;;2.30;;
52724;SDS011;38621;52.830;6.914;2022-10-16T04:54:26;3.65;;;2.15;;
52724;SDS011;38621;52.830;6.914;2022-10-16T04:56:52;3.33;;;2.17;;
52724;SDS011;38621;52.830;6.914;2022-10-16T04:59:18;3.42;;;2.10;;
52724;SDS011;38621;52.830;6.914;2022-10-16T05:01:45;3.95;;;2.15;;
52724;SDS011;38621;52.830;6.914;2022-10-16T05:04:10;4.68;;;2.20;;
52724;SDS011;38621;52.830;6.914;2022-10-16T05:06:36;2.90;;;2.22;;
52724;SDS011;38621;52.830;6.914;2022-10-16T05:09:04;3.42;;;2.20;;
52724;SDS011;38621;52.830;6.914;2022-10-16T05:11:30;5.32;;;2.20;;
52724;SDS011;38621;52.830;6.914;2022-10-16T05:13:56;3.95;;;2.05;;
52724;SDS011;38621;52.830;6.914;2022-10-16T05:16:22;3.30;;;1.90;;
52724;SDS011;38621;52.830;6.914;2022-10-16T05:18:47;4.57;;;2.10;;
52724;SDS011;38621;52.830;6.914;2022-10-16T05:21:13;3.45;;;2.50;;
52724;SDS011;38621;52.830;6.914;2022-10-16T05:23:39;4.45;;;2.47;;
52724;SDS011;38621;52.830;6.914;2022-10-16T05:26:05;3.20;;;2.15;;
52724;SDS011;38621;52.830;6.914;2022-10-16T05:28:30;4.05;;;2.22;;
52724;SDS011;38621;52.830;6.914;2022-10-16T05:30:57;3.92;;;2.35;;
52724;SDS011;38621;52.830;6.914;2022-10-16T05:33:24;4.25;;;2.45;;
52724;SDS011;38621;52.830;6.914;2022-10-16T05:35:50;3.20;;;2.15;;
52724;SDS011;38621;52.830;6.914;2022-10-16T05:38:16;3.47;;;2.22;;
52724;SDS011;38621;52.830;6.914;2022-10-16T05:40:42;3.47;;;2.13;;
52724;SDS011;38621;52.830;6.914;2022-10-16T05:43:08;4.10;;;2.40;;
52724;SDS011;38621;52.830;6.914;2022-10-16T05:45:34;4.15;;;2.22;;
52724;SDS011;38621;52.830;6.914;2022-10-16T05:48:00;3.35;;;2.40;;
52724;SDS011;38621;52.830;6.914;2022-10-16T05:50:26;3.10;;;2.10;;
52724;SDS011;38621;52.830;6.914;2022-10-16T05:52:52;3.40;;;2.22;;
52724;SDS011;38621;52.830;6.914;2022-10-16T05:55:18;4.50;;;2.50;;
52724;SDS011;38621;52.830;6.914;2022-10-16T05:57:43;3.67;;;2.28;;
52724;SDS011;38621;52.830;6.914;2022-10-16T06:00:09;3.03;;;2.20;;
52724;SDS011;38621;52.830;6.914;2022-10-16T06:02:35;3.78;;;2.38;;
52724;SDS011;38621;52.830;6.914;2022-10-16T06:05:01;2.63;;;1.92;;
52724;SDS011;38621;52.830;6.914;2022-10-16T06:07:27;3.95;;;2.15;;
52724;SDS011;38621;52.830;6.914;2022-10-16T06:09:52;2.75;;;1.90;;
52724;SDS011;38621;52.830;6.914;2022-10-16T06:12:18;2.58;;;1.70;;
52724;SDS011;38621;52.830;6.914;2022-10-16T06:14:45;3.90;;;1.88;;
52724;SDS011;38621;52.830;6.914;2022-10-16T06:17:14;4.50;;;2.10;;
52724;SDS011;38621;52.830;6.914;2022-10-16T06:19:40;3.28;;;2.08;;
52724;SDS011;38621;52.830;6.914;2022-10-16T06:22:06;3.83;;;2.10;;
52724;SDS011;38621;52.830;6.914;2022-10-16T06:24:32;2.95;;;1.80;;
52724;SDS011;38621;52.830;6.914;2022-10-16T06:26:57;2.80;;;1.90;;
52724;SDS011;38621;52.830;6.914;2022-10-16T06:29:23;3.20;;;1.90;;
52724;SDS011;38621;52.830;6.914;2022-10-16T06:31:49;3.58;;;1.70;;
52724;SDS011;38621;52.830;6.914;2022-10-16T06:34:14;3.03;;;1.80;;
52724;SDS011;38621;52.830;6.914;2022-10-16T06:36:40;3.25;;;1.80;;
52724;SDS011;38621;52.830;6.914;2022-10-16T06:39:06;2.92;;;1.73;;
52724;SDS011;38621;52.830;6.914;2022-10-16T06:41:34;3.08;;;1.42;;
52724;SDS011;38621;52.830;6.914;2022-10-16T06:44:00;2.55;;;1.50;;
52724;SDS011;38621;52.830;6.914;2022-10-16T06:46:26;2.90;;;1.50;;
52724;SDS011;38621;52.830;6.914;2022-10-16T06:48:53;4.28;;;1.60;;
52724;SDS011;38621;52.830;6.914;2022-10-16T06:51:19;2.35;;;1.60;;
52724;SDS011;38621;52.830;6.914;2022-10-16T06:53:50;2.65;;;1.70;;
52724;SDS011;38621;52.830;6.914;2022-10-16T06:56:19;3.40;;;1.80;;
52724;SDS011;38621;52.830;6.914;2022-10-16T06:58:50;2.70;;;1.58;;
52724;SDS011;38621;52.830;6.914;2022-10-16T07:01:17;3.47;;;1.50;;
52724;SDS011;38621;52.830;6.914;2022-10-16T07:03:44;2.28;;;1.40;;
52724;SDS011;38621;52.830;6.914;2022-10-16T07:06:12;2.90;;;1.45;;
52724;SDS011;38621;52.830;6.914;2022-10-16T07:08:42;2.65;;;1.35;;
52724;SDS011;38621;52.830;6.914;2022-10-16T07:11:10;3.38;;;1.80;;
52724;SDS011;38621;52.830;6.914;2022-10-16T07:13:38;2.35;;;1.50;;
52724;SDS011;38621;52.830;6.914;2022-10-16T07:16:06;2.20;;;1.50;;
52724;SDS011;38621;52.830;6.914;2022-10-16T07:18:31;3.10;;;1.83;;
52724;SDS011;38621;52.830;6.914;2022-10-16T07:21:07;3.70;;;1.55;;
52724;SDS011;38621;52.830;6.914;2022-10-16T07:23:41;3.85;;;1.63;;
52724;SDS011;38621;52.830;6.914;2022-10-16T07:26:09;4.55;;;1.70;;
52724;SDS011;38621;52.830;6.914;2022-10-16T07:28:35;3.38;;;1.85;;
52724;SDS011;38621;52.830;6.914;2022-10-16T07:31:02;3.03;;;1.50;;
52724;SDS011;38621;52.830;6.914;2022-10-16T07:33:29;3.20;;;1.67;;
52724;SDS011;38621;52.830;6.914;2022-10-16T07:35:55;2.92;;;1.50;;
52724;SDS011;38621;52.830;6.914;2022-10-16T07:38:21;2.65;;;1.60;;
52724;SDS011;38621;52.830;6.914;2022-10-16T07:40:47;2.53;;;1.70;;
52724;SDS011;38621;52.830;6.914;2022-10-16T07:43:13;2.78;;;1.60;;
52724;SDS011;38621;52.830;6.914;2022-10-16T07:45:46;2.53;;;1.60;;
52724;SDS011;38621;52.830;6.914;2022-10-16T07:48:14;3.35;;;1.58;;
52724;SDS011;38621;52.830;6.914;2022-10-16T07:50:40;2.92;;;1.92;;
52724;SDS011;38621;52.830;6.914;2022-10-16T07:53:06;2.55;;;1.58;;
52724;SDS011;38621;52.830;6.914;2022-10-16T07:55:32;3.50;;;1.85;;
52724;SDS011;38621;52.830;6.914;2022-10-16T07:57:58;3.75;;;1.92;;
52724;SDS011;38621;52.830;6.914;2022-10-16T08:00:24;3.42;;;1.60;;
52724;SDS011;38621;52.830;6.914;2022-10-16T08:02:49;3.58;;;1.63;;
52724;SDS011;38621;52.830;6.914;2022-10-16T08:05:15;2.65;;;1.73;;
52724;SDS011;38621;52.830;6.914;2022-10-16T08:07:41;4.35;;;1.70;;
52724;SDS011;38621;52.830;6.914;2022-10-16T08:10:19;4.25;;;1.50;;
52724;SDS011;38621;52.830;6.914;2022-10-16T08:12:47;2.40;;;1.30;;
52724;SDS011;38621;52.830;6.914;2022-10-16T08:15:12;3.38;;;1.45;;
52724;SDS011;38621;52.830;6.914;2022-10-16T08:17:38;2.55;;;1.27;;
52724;SDS011;38621;52.830;6.914;2022-10-16T08:20:04;4.57;;;1.40;;
52724;SDS011;38621;52.830;6.914;2022-10-16T08:22:30;2.97;;;1.42;;
52724;SDS011;38621;52.830;6.914;2022-10-16T08:24:56;3.45;;;1.50;;
52724;SDS011;38621;52.830;6.914;2022-10-16T08:27:22;3.10;;;1.17;;
52724;SDS011;38621;52.830;6.914;2022-10-16T08:29:50;3.65;;;1.30;;
52724;SDS011;38621;52.830;6.914;2022-10-16T08:32:16;4.10;;;1.13;;
52724;SDS011;38621;52.830;6.914;2022-10-16T08:34:42;1.98;;;0.90;;
52724;SDS011;38621;52.830;6.914;2022-10-16T08:37:07;1.90;;;1.00;;
52724;SDS011;38621;52.830;6.914;2022-10-16T08:39:36;2.60;;;1.08;;
52724;SDS011;38621;52.830;6.914;2022-10-16T08:42:12;1.83;;;0.90;;
52724;SDS011;38621;52.830;6.914;2022-10-16T08:45:01;3.53;;;1.00;;
52724;SDS011;38621;52.830;6.914;2022-10-16T08:50:22;2.45;;;0.90;;
52724;SDS011;38621;52.830;6.914;2022-10-16T08:52:50;4.03;;;1.13;;
52724;SDS011;38621;52.830;6.914;2022-10-16T08:58:18;2.47;;;1.20;;
52724;SDS011;38621;52.830;6.914;2022-10-16T09:00:47;2.25;;;1.02;;
52724;SDS011;38621;52.830;6.914;2022-10-16T09:17:19;2.45;;;1.10;;
52724;SDS011;38621;52.830;6.914;2022-10-16T09:19:49;3.13;;;1.27;;
52724;SDS011;38621;52.830;6.914;2022-10-16T09:22:21;1.70;;;1.00;;
52724;SDS011;38621;52.830;6.914;2022-10-16T09:24:53;2.45;;;1.20;;
52724;SDS011;38621;52.830;6.914;2022-10-16T09:27:23;2.63;;;1.10;;
52724;SDS011;38621;52.830;6.914;2022-10-16T09:29:49;2.70;;;1.20;;
52724;SDS011;38621;52.830;6.914;2022-10-16T09:32:15;2.17;;;1.08;;
52724;SDS011;38621;52.830;6.914;2022-10-16T09:34:49;3.58;;;1.10;;
52724;SDS011;38621;52.830;6.914;2022-10-16T09:37:18;5.07;;;1.35;;
52724;SDS011;38621;52.830;6.914;2022-10-16T09:39:47;3.10;;;1.10;;
52724;SDS011;38621;52.830;6.914;2022-10-16T09:42:15;2.63;;;1.10;;
52724;SDS011;38621;52.830;6.914;2022-10-16T09:44:48;3.10;;;1.00;;
52724;SDS011;38621;52.830;6.914;2022-10-16T09:47:17;3.47;;;1.33;;
52724;SDS011;38621;52.830;6.914;2022-10-16T09:52:27;2.25;;;0.90;;
52724;SDS011;38621;52.830;6.914;2022-10-16T09:54:57;2.55;;;0.95;;
52724;SDS011;38621;52.830;6.914;2022-10-16T09:57:24;2.55;;;0.90;;
52724;SDS011;38621;52.830;6.914;2022-10-16T09:59:51;3.33;;;1.08;;
52724;SDS011;38621;52.830;6.914;2022-10-16T10:02:19;2.50;;;1.02;;
52724;SDS011;38621;52.830;6.914;2022-10-16T10:04:56;2.42;;;1.05;;
52724;SDS011;38621;52.830;6.914;2022-10-16T10:09:52;3.88;;;1.17;;
52724;SDS011;38621;52.830;6.914;2022-10-16T10:12:24;3.83;;;1.00;;
52724;SDS011;38621;52.830;6.914;2022-10-16T10:14:52;3.47;;;1.20;;
52724;SDS011;38621;52.830;6.914;2022-10-16T10:17:24;4.35;;;1.05;;
52724;SDS011;38621;52.830;6.914;2022-10-16T10:20:15;4.50;;;0.93;;
52724;SDS011;38621;52.830;6.914;2022-10-16T10:22:42;3.20;;;1.23;;
52724;SDS011;38621;52.830;6.914;2022-10-16T10:35:14;4.97;;;1.30;;
52724;SDS011;38621;52.830;6.914;2022-10-16T10:37:51;3.55;;;1.20;;
52724;SDS011;38621;52.830;6.914;2022-10-16T10:40:28;3.95;;;1.10;;
52724;SDS011;38621;52.830;6.914;2022-10-16T10:43:06;4.72;;;1.13;;
52724;SDS011;38621;52.830;6.914;2022-10-16T10:46:20;4.68;;;1.10;;
52724;SDS011;38621;52.830;6.914;2022-10-16T10:49:09;3.47;;;0.95;;
52724;SDS011;38621;52.830;6.914;2022-10-16T10:51:58;2.92;;;1.05;;
52724;SDS011;38621;52.830;6.914;2022-10-16T10:54:34;3.88;;;1.20;;
52724;SDS011;38621;52.830;6.914;2022-10-16T11:07:54;3.78;;;1.50;;
52724;SDS011;38621;52.830;6.914;2022-10-16T11:10:42;2.88;;;0.90;;
52724;SDS011;38621;52.830;6.914;2022-10-16T11:16:15;4.22;;;1.10;;
52724;SDS011;38621;52.830;6.914;2022-10-16T11:18:49;3.90;;;1.20;;
52724;SDS011;38621;52.830;6.914;2022-10-16T11:21:24;2.80;;;1.02;;
52724;SDS011;38621;52.830;6.914;2022-10-16T11:23:59;3.80;;;1.08;;
52724;SDS011;38621;52.830;6.914;2022-10-16T11:26:34;5.05;;;1.80;;
52724;SDS011;38621;52.830;6.914;2022-10-16T11:29:04;4.72;;;1.23;;
52724;SDS011;38621;52.830;6.914;2022-10-16T11:31:39;4.97;;;1.38;;
52724;SDS011;38621;52.830;6.914;2022-10-16T11:37:27;3.58;;;0.85;;
52724;SDS011;38621;52.830;6.914;2022-10-16T11:39:47;4.03;;;1.55;;
52724;SDS011;38621;52.830;6.914;2022-10-16T11:42:36;3.08;;;1.10;;
52724;SDS011;38621;52.830;6.914;2022-10-16T11:51:05;2.65;;;0.93;;
52724;SDS011;38621;52.830;6.914;2022-10-16T11:56:06;3.92;;;1.20;;
52724;SDS011;38621;52.830;6.914;2022-10-16T11:58:37;3.45;;;1.35;;
52724;SDS011;38621;52.830;6.914;2022-10-16T12:04:21;2.05;;;0.82;;
52724;SDS011;38621;52.830;6.914;2022-10-16T12:06:59;4.18;;;1.05;;
52724;SDS011;38621;52.830;6.914;2022-10-16T12:09:33;2.80;;;0.98;;
52724;SDS011;38621;52.830;6.914;2022-10-16T12:12:02;5.30;;;1.35;;
52724;SDS011;38621;52.830;6.914;2022-10-16T12:17:01;2.97;;;1.00;;
52724;SDS011;38621;52.830;6.914;2022-10-16T12:19:31;3.60;;;1.08;;
52724;SDS011;38621;52.830;6.914;2022-10-16T12:21:59;5.28;;;1.20;;
52724;SDS011;38621;52.830;6.914;2022-10-16T12:26:55;5.65;;;2.50;;
52724;SDS011;38621;52.830;6.914;2022-10-16T12:31:46;4.32;;;1.20;;
52724;SDS011;38621;52.830;6.914;2022-10-16T12:34:19;4.18;;;0.90;;
52724;SDS011;38621;52.830;6.914;2022-10-16T12:36:48;4.47;;;1.42;;
52724;SDS011;38621;52.830;6.914;2022-10-16T12:39:24;5.50;;;1.30;;
52724;SDS011;38621;52.830;6.914;2022-10-16T12:42:04;3.05;;;1.05;;
52724;SDS011;38621;52.830;6.914;2022-10-16T12:44:32;3.47;;;1.23;;
52724;SDS011;38621;52.830;6.914;2022-10-16T12:47:00;4.25;;;1.20;;
52724;SDS011;38621;52.830;6.914;2022-10-16T12:51:56;2.90;;;1.00;;
52724;SDS011;38621;52.830;6.914;2022-10-16T12:54:25;4.13;;;1.02;;
52724;SDS011;38621;52.830;6.914;2022-10-16T12:59:29;3.10;;;0.75;;
52724;SDS011;38621;52.830;6.914;2022-10-16T13:04:36;2.92;;;1.00;;
52724;SDS011;38621;52.830;6.914;2022-10-16T13:07:31;4.28;;;1.10;;
52724;SDS011;38621;52.830;6.914;2022-10-16T13:10:00;4.07;;;1.05;;
52724;SDS011;38621;52.830;6.914;2022-10-16T13:18:16;3.83;;;1.17;;
52724;SDS011;38621;52.830;6.914;2022-10-16T13:20:59;2.63;;;1.00;;
52724;SDS011;38621;52.830;6.914;2022-10-16T13:23:52;1.92;;;0.75;;
52724;SDS011;38621;52.830;6.914;2022-10-16T13:26:35;2.13;;;0.98;;
52724;SDS011;38621;52.830;6.914;2022-10-16T13:29:09;3.83;;;0.95;;
52724;SDS011;38621;52.830;6.914;2022-10-16T13:31:36;2.97;;;0.90;;
52724;SDS011;38621;52.830;6.914;2022-10-16T13:34:04;4.90;;;1.23;;
52724;SDS011;38621;52.830;6.914;2022-10-16T13:36:35;4.70;;;1.15;;
52724;SDS011;38621;52.830;6.914;2022-10-16T13:39:22;5.95;;;1.10;;
52724;SDS011;38621;52.830;6.914;2022-10-16T13:42:10;4.80;;;1.23;;
52724;SDS011;38621;52.830;6.914;2022-10-16T13:44:48;4.93;;;1.13;;
52724;SDS011;38621;52.830;6.914;2022-10-16T13:47:17;3.40;;;0.98;;
52724;SDS011;38621;52.830;6.914;2022-10-16T13:49:44;4.20;;;0.98;;
52724;SDS011;38621;52.830;6.914;2022-10-16T13:52:18;3.17;;;1.05;;
52724;SDS011;38621;52.830;6.914;2022-10-16T13:54:45;4.53;;;1.05;;
52724;SDS011;38621;52.830;6.914;2022-10-16T13:57:14;3.97;;;1.02;;
52724;SDS011;38621;52.830;6.914;2022-10-16T13:59:41;5.55;;;1.33;;
52724;SDS011;38621;52.830;6.914;2022-10-16T14:05:00;3.35;;;0.90;;
52724;SDS011;38621;52.830;6.914;2022-10-16T14:07:28;3.47;;;0.95;;
52724;SDS011;38621;52.830;6.914;2022-10-16T14:09:57;3.58;;;1.13;;
52724;SDS011;38621;52.830;6.914;2022-10-16T14:12:26;4.70;;;1.13;;
52724;SDS011;38621;52.830;6.914;2022-10-16T14:14:52;6.38;;;1.20;;
52724;SDS011;38621;52.830;6.914;2022-10-16T14:17:20;4.28;;;1.30;;
52724;SDS011;38621;52.830;6.914;2022-10-16T14:19:50;3.45;;;0.93;;
52724;SDS011;38621;52.830;6.914;2022-10-16T14:25:00;1.70;;;0.80;;
52724;SDS011;38621;52.830;6.914;2022-10-16T14:27:32;3.40;;;0.95;;
52724;SDS011;38621;52.830;6.914;2022-10-16T14:32:51;4.20;;;1.20;;
52724;SDS011;38621;52.830;6.914;2022-10-16T14:35:26;2.20;;;1.05;;
52724;SDS011;38621;52.830;6.914;2022-10-16T14:37:55;2.80;;;0.98;;
52724;SDS011;38621;52.830;6.914;2022-10-16T14:40:46;5.45;;;1.23;;
52724;SDS011;38621;52.830;6.914;2022-10-16T14:43:20;4.05;;;0.98;;
52724;SDS011;38621;52.830;6.914;2022-10-16T14:45:52;2.53;;;0.82;;
52724;SDS011;38621;52.830;6.914;2022-10-16T14:48:19;3.85;;;1.20;;
52724;SDS011;38621;52.830;6.914;2022-10-16T14:50:46;2.45;;;1.10;;
52724;SDS011;38621;52.830;6.914;2022-10-16T14:53:11;3.75;;;1.00;;
52724;SDS011;38621;52.830;6.914;2022-10-16T14:55:38;2.10;;;0.85;;
52724;SDS011;38621;52.830;6.914;2022-10-16T14:58:05;2.28;;;0.93;;
52724;SDS011;38621;52.830;6.914;2022-10-16T15:00:34;4.63;;;1.35;;
52724;SDS011;38621;52.830;6.914;2022-10-16T15:03:00;5.15;;;1.00;;
52724;SDS011;38621;52.830;6.914;2022-10-16T15:05:26;4.18;;;1.00;;
52724;SDS011;38621;52.830;6.914;2022-10-16T15:07:53;2.92;;;1.23;;
52724;SDS011;38621;52.830;6.914;2022-10-16T15:10:20;2.83;;;0.90;;
52724;SDS011;38621;52.830;6.914;2022-10-16T15:12:47;4.05;;;1.00;;
52724;SDS011;38621;52.830;6.914;2022-10-16T15:17:49;3.60;;;0.88;;
52724;SDS011;38621;52.830;6.914;2022-10-16T15:20:21;3.38;;;1.08;;
52724;SDS011;38621;52.830;6.914;2022-10-16T15:22:48;2.33;;;1.00;;
52724;SDS011;38621;52.830;6.914;2022-10-16T15:25:25;2.85;;;1.10;;
52724;SDS011;38621;52.830;6.914;2022-10-16T15:27:57;3.65;;;1.02;;
52724;SDS011;38621;52.830;6.914;2022-10-16T15:30:24;3.67;;;1.05;;
52724;SDS011;38621;52.830;6.914;2022-10-16T15:32:50;3.35;;;1.15;;
52724;SDS011;38621;52.830;6.914;2022-10-16T15:35:15;2.67;;;0.90;;
52724;SDS011;38621;52.830;6.914;2022-10-16T15:37:41;3.78;;;1.13;;
52724;SDS011;38621;52.830;6.914;2022-10-16T15:40:08;1.85;;;0.88;;
52724;SDS011;38621;52.830;6.914;2022-10-16T15:42:35;4.00;;;1.02;;
52724;SDS011;38621;52.830;6.914;2022-10-16T15:45:00;3.38;;;1.05;;
52724;SDS011;38621;52.830;6.914;2022-10-16T15:47:26;3.95;;;1.05;;
52724;SDS011;38621;52.830;6.914;2022-10-16T15:49:52;4.38;;;1.20;;
52724;SDS011;38621;52.830;6.914;2022-10-16T15:52:17;4.35;;;1.05;;
52724;SDS011;38621;52.830;6.914;2022-10-16T15:54:43;3.55;;;1.00;;
52724;SDS011;38621;52.830;6.914;2022-10-16T15:57:09;5.50;;;1.08;;
52724;SDS011;38621;52.830;6.914;2022-10-16T15:59:34;3.55;;;1.10;;
52724;SDS011;38621;52.830;6.914;2022-10-16T16:02:00;2.97;;;1.02;;
52724;SDS011;38621;52.830;6.914;2022-10-16T16:04:26;3.85;;;1.20;;
52724;SDS011;38621;52.830;6.914;2022-10-16T16:06:54;4.00;;;1.00;;
52724;SDS011;38621;52.830;6.914;2022-10-16T16:09:19;3.90;;;1.08;;
52724;SDS011;38621;52.830;6.914;2022-10-16T16:11:45;3.08;;;1.20;;
52724;SDS011;38621;52.830;6.914;2022-10-16T16:14:12;3.17;;;1.10;;
52724;SDS011;38621;52.830;6.914;2022-10-16T16:16:38;5.03;;;1.42;;
52724;SDS011;38621;52.830;6.914;2022-10-16T16:19:04;3.45;;;1.05;;
52724;SDS011;38621;52.830;6.914;2022-10-16T16:21:32;4.10;;;1.00;;
52724;SDS011;38621;52.830;6.914;2022-10-16T16:23:58;3.05;;;1.05;;
52724;SDS011;38621;52.830;6.914;2022-10-16T16:26:25;3.80;;;1.00;;
52724;SDS011;38621;52.830;6.914;2022-10-16T16:28:57;2.72;;;1.02;;
52724;SDS011;38621;52.830;6.914;2022-10-16T16:31:27;3.53;;;1.00;;
52724;SDS011;38621;52.830;6.914;2022-10-16T16:33:53;3.63;;;1.33;;
52724;SDS011;38621;52.830;6.914;2022-10-16T16:36:20;2.80;;;1.20;;
52724;SDS011;38621;52.830;6.914;2022-10-16T16:38:46;2.58;;;0.98;;
52724;SDS011;38621;52.830;6.914;2022-10-16T16:41:22;3.83;;;1.05;;
52724;SDS011;38621;52.830;6.914;2022-10-16T16:43:50;4.22;;;1.48;;
52724;SDS011;38621;52.830;6.914;2022-10-16T16:46:16;5.32;;;1.70;;